Time;durP1;ratioP1;P1;durP2;ratioP2;P2;SDS_P1;SDS_P2;PMS_P1;PMS_P2;Temp;Humidity;BMP_temperature;BMP_pressure;BME280_temperature;BME280_humidity;BME280_pressure;Samples;Min_cycle;Max_cycle;Signal;HPM_P1;HPM_P2
2023/09/20 00:01:54;;;;;;;6.88;2.10;;;30.60;22.80;;;;;;5095621;28;20471;-82
2023/09/20 00:04:22;;;;;;;5.05;1.90;;;30.60;22.50;;;;;;5095982;28;20028;-79
2023/09/20 00:06:51;;;;;;;8.93;2.28;;;30.70;22.70;;;;;;5095955;28;20027;-85
2023/09/20 00:09:18;;;;;;;7.32;2.33;;;30.80;22.40;;;;;;5095693;28;20035;-77
2023/09/20 00:11:46;;;;;;;8.40;2.40;;;30.80;22.30;;;;;;5094714;28;20230;-81
2023/09/20 00:14:13;;;;;;;5.63;2.33;;;30.90;22.50;;;;;;5095955;28;20023;-82
2023/09/20 00:16:42;;;;;;;5.63;2.35;;;31.00;22.00;;;;;;5092634;28;20036;-79
2023/09/20 00:19:09;;;;;;;4.65;2.00;;;31.20;22.30;;;;;;5080476;28;20047;-79
2023/09/20 00:21:37;;;;;;;7.25;2.33;;;31.30;22.40;;;;;;5085881;28;20070;-79
2023/09/20 00:24:04;;;;;;;5.78;2.10;;;31.50;22.00;;;;;;5080884;28;20062;-78
2023/09/20 00:26:34;;;;;;;6.88;2.30;;;31.60;21.40;;;;;;5089244;28;20104;-79
2023/09/20 00:29:05;;;;;;;5.40;2.30;;;31.60;22.00;;;;;;5076773;28;20442;-80
2023/09/20 00:31:33;;;;;;;4.18;2.30;;;31.70;21.90;;;;;;5084197;28;20030;-79
2023/09/20 00:34:03;;;;;;;7.68;2.15;;;31.80;21.70;;;;;;5091339;28;20062;-79
2023/09/20 00:36:31;;;;;;;5.25;2.53;;;31.90;21.00;;;;;;5077495;28;20082;-81
2023/09/20 00:39:00;;;;;;;6.00;2.47;;;31.90;21.10;;;;;;5085893;28;20024;-80
2023/09/20 00:41:28;;;;;;;3.17;2.10;;;32.10;21.00;;;;;;5081523;28;20028;-79
2023/09/20 00:43:55;;;;;;;6.57;2.45;;;32.20;21.00;;;;;;5074485;28;20036;-79
2023/09/20 00:46:24;;;;;;;8.55;2.28;;;32.30;21.00;;;;;;5081074;28;20017;-80
2023/09/20 00:48:53;;;;;;;7.68;2.28;;;32.30;20.60;;;;;;5081118;28;20494;-78
2023/09/20 00:51:21;;;;;;;9.38;2.35;;;32.30;20.50;;;;;;5082682;28;20028;-80
2023/09/20 00:53:55;;;;;;;4.90;2.30;;;32.40;21.00;;;;;;5076641;28;20024;-79
2023/09/20 00:56:23;;;;;;;5.43;2.38;;;32.50;20.60;;;;;;5090465;28;20020;-78
2023/09/20 00:58:52;;;;;;;4.93;2.20;;;32.60;20.70;;;;;;5080823;28;20513;-81
2023/09/20 01:01:20;;;;;;;10.20;2.35;;;32.60;20.80;;;;;;5080644;28;20074;-80
2023/09/20 01:03:47;;;;;;;6.78;2.30;;;32.60;20.30;;;;;;5080800;28;20503;-79
2023/09/20 01:06:17;;;;;;;6.75;2.05;;;32.70;20.40;;;;;;5078005;28;20027;-83
2023/09/20 01:08:46;;;;;;;6.97;2.20;;;32.70;20.60;;;;;;5080339;28;20020;-87
2023/09/20 01:11:15;;;;;;;3.28;2.20;;;32.70;20.50;;;;;;5089098;28;20046;-81
2023/09/20 01:13:43;;;;;;;5.38;2.13;;;32.80;20.40;;;;;;5080245;28;20050;-78
2023/09/20 01:16:14;;;;;;;5.20;2.05;;;32.90;19.70;;;;;;5090395;28;20056;-79
2023/09/20 01:18:44;;;;;;;8.65;2.65;;;32.90;20.10;;;;;;5079756;28;20467;-80
2023/09/20 01:21:12;;;;;;;5.80;2.45;;;33.10;20.70;;;;;;5088697;28;20516;-79
2023/09/20 01:23:43;;;;;;;4.32;2.17;;;33.20;20.20;;;;;;5080768;28;20040;-84
2023/09/20 01:26:15;;;;;;;3.05;2.40;;;33.30;20.20;;;;;;5090208;28;20471;-81
2023/09/20 01:28:43;;;;;;;8.45;2.45;;;33.40;19.70;;;;;;5079760;28;20016;-80
2023/09/20 01:31:10;;;;;;;4.30;2.50;;;33.40;20.10;;;;;;5082386;28;20391;-78
2023/09/20 01:33:39;;;;;;;4.30;2.50;;;33.40;19.90;;;;;;5087133;28;20020;-80
2023/09/20 01:36:06;;;;;;;4.25;2.20;;;33.50;19.90;;;;;;5075745;28;20068;-78
2023/09/20 01:38:34;;;;;;;5.43;2.33;;;33.60;19.50;;;;;;5077883;28;20032;-79
2023/09/20 01:41:01;;;;;;;7.93;2.60;;;33.70;19.20;;;;;;5084753;28;20465;-78
2023/09/20 01:43:29;;;;;;;8.02;3.20;;;33.70;19.40;;;;;;5085742;28;20035;-77
2023/09/20 01:45:56;;;;;;;7.10;2.42;;;33.80;19.20;;;;;;5077327;28;20052;-79
2023/09/20 01:48:23;;;;;;;8.48;2.50;;;33.80;19.40;;;;;;5089666;28;20059;-78
2023/09/20 01:50:51;;;;;;;6.72;2.63;;;33.80;19.20;;;;;;5076562;28;20013;-78
2023/09/20 01:53:18;;;;;;;12.95;2.90;;;33.90;19.50;;;;;;5082382;28;20569;-80
2023/09/20 01:55:47;;;;;;;5.70;2.42;;;33.90;19.00;;;;;;5086763;28;20020;-78
2023/09/20 01:58:14;;;;;;;9.90;2.60;;;33.90;18.70;;;;;;5076025;28;20024;-81
2023/09/20 02:00:43;;;;;;;6.88;2.58;;;33.90;18.90;;;;;;5087113;28;20414;-79
2023/09/20 02:03:16;;;;;;;11.10;2.75;;;34.00;19.20;;;;;;5071689;28;20071;-79
2023/09/20 02:05:47;;;;;;;6.32;2.60;;;34.10;19.40;;;;;;5073347;28;20013;-80
2023/09/20 02:08:15;;;;;;;4.97;2.25;;;34.20;19.10;;;;;;5088854;28;20060;-79
2023/09/20 02:10:44;;;;;;;8.55;2.50;;;34.20;19.00;;;;;;5076636;28;20023;-78
2023/09/20 02:13:15;;;;;;;7.95;2.55;;;34.30;18.80;;;;;;5081059;28;20119;-79
2023/09/20 02:15:43;;;;;;;4.38;2.33;;;34.10;19.20;;;;;;5087120;28;20498;-79
2023/09/20 02:18:11;;;;;;;7.70;2.60;;;34.10;19.60;;;;;;5075637;28;20027;-78
2023/09/20 02:20:38;;;;;;;6.93;2.83;;;34.10;19.60;;;;;;5087478;28;20435;-79
2023/09/20 02:23:07;;;;;;;8.95;2.47;;;34.00;19.80;;;;;;5081686;28;20050;-79
2023/09/20 02:25:35;;;;;;;3.85;2.70;;;33.90;19.90;;;;;;5079509;28;20017;-78
2023/09/20 02:28:07;;;;;;;7.85;2.50;;;34.00;19.80;;;;;;5072893;28;20403;-78
2023/09/20 02:30:38;;;;;;;6.85;2.40;;;34.00;20.00;;;;;;5087989;28;20020;-80
2023/09/20 02:33:07;;;;;;;6.78;2.42;;;34.10;19.80;;;;;;5081656;28;20035;-77
2023/09/20 02:35:38;;;;;;;4.55;2.63;;;34.20;20.40;;;;;;5078403;28;20065;-79
2023/09/20 02:38:05;;;;;;;4.32;2.53;;;34.10;19.50;;;;;;5088889;28;20031;-80
2023/09/20 02:40:34;;;;;;;5.90;2.60;;;34.20;19.50;;;;;;5077076;28;20114;-80
2023/09/20 02:43:08;;;;;;;5.68;2.85;;;34.10;19.80;;;;;;5081236;28;20109;-80
2023/09/20 02:45:36;;;;;;;9.98;2.80;;;34.10;19.40;;;;;;5078115;28;20029;-79
2023/09/20 02:48:06;;;;;;;7.93;2.70;;;34.10;19.50;;;;;;5088899;28;20056;-78
2023/09/20 02:50:34;;;;;;;6.53;2.67;;;34.20;19.10;;;;;;5076997;28;20012;-79
2023/09/20 02:53:01;;;;;;;6.22;2.80;;;34.20;19.60;;;;;;5077829;28;20029;-78
2023/09/20 02:55:31;;;;;;;5.68;2.70;;;34.30;18.90;;;;;;5084519;28;20099;-78
2023/09/20 02:57:59;;;;;;;9.48;2.88;;;34.30;18.80;;;;;;5076202;28;20021;-77
2023/09/20 03:00:31;;;;;;;4.28;2.40;;;34.30;18.50;;;;;;5059399;28;20024;-81
2023/09/20 03:03:08;;;;;;;5.32;2.63;;;34.40;18.60;;;;;;5077740;28;20036;-83
2023/09/20 03:05:38;;;;;;;5.15;2.60;;;34.50;18.90;;;;;;5085529;28;20098;-81
2023/09/20 03:08:11;;;;;;;7.82;2.80;;;34.60;18.50;;;;;;5075520;28;20045;-81
2023/09/20 03:10:41;;;;;;;4.10;2.42;;;34.70;18.60;;;;;;5086925;28;20024;-80
2023/09/20 03:13:16;;;;;;;10.07;2.65;;;34.80;19.00;;;;;;5072732;28;20439;-80
2023/09/20 03:15:48;;;;;;;5.13;2.65;;;34.90;18.20;;;;;;5086640;28;20023;-80
2023/09/20 03:18:16;;;;;;;4.68;2.55;;;34.90;18.50;;;;;;5091492;28;20034;-83
2023/09/20 03:20:44;;;;;;;4.93;2.75;;;35.00;18.50;;;;;;5092897;28;20494;-79
2023/09/20 03:23:13;;;;;;;4.00;2.60;;;35.00;17.70;;;;;;5090714;28;20068;-77
2023/09/20 03:25:40;;;;;;;5.25;2.83;;;35.00;17.50;;;;;;5092199;28;20054;-78
2023/09/20 03:28:09;;;;;;;8.35;2.80;;;35.10;17.60;;;;;;5092801;28;20467;-80
2023/09/20 03:30:40;;;;;;;7.13;2.75;;;35.10;17.10;;;;;;5092765;28;20052;-80
2023/09/20 03:33:08;;;;;;;5.10;2.72;;;35.10;17.10;;;;;;5092407;28;20028;-79
2023/09/20 03:35:37;;;;;;;4.90;2.83;;;35.10;17.30;;;;;;5092375;28;20031;-79
2023/09/20 03:38:04;;;;;;;8.57;2.88;;;35.20;17.40;;;;;;5092865;28;20031;-78
2023/09/20 03:40:32;;;;;;;6.78;2.70;;;35.20;17.00;;;;;;5092355;28;20035;-80
2023/09/20 03:43:02;;;;;;;11.15;3.00;;;35.20;17.20;;;;;;5092152;28;20055;-78
2023/09/20 03:45:31;;;;;;;3.33;2.78;;;35.20;17.60;;;;;;5092309;28;20158;-79
2023/09/20 03:48:01;;;;;;;3.08;2.78;;;35.30;17.50;;;;;;5094733;28;20103;-80
2023/09/20 03:50:28;;;;;;;9.93;2.95;;;35.30;17.70;;;;;;5095845;28;20031;-79
2023/09/20 03:52:56;;;;;;;7.03;2.88;;;35.40;17.40;;;;;;5095775;28;20031;-81
2023/09/20 03:55:23;;;;;;;6.07;2.83;;;35.50;17.60;;;;;;5095809;28;20467;-81
2023/09/20 03:57:50;;;;;;;6.53;2.60;;;35.60;17.80;;;;;;5095929;28;20095;-79
2023/09/20 04:00:28;;;;;;;5.03;2.88;;;35.70;17.00;;;;;;5095890;28;20035;-80
2023/09/20 04:02:56;;;;;;;3.00;2.60;;;35.70;17.20;;;;;;5095538;28;20063;-80
2023/09/20 04:05:24;;;;;;;4.18;2.50;;;35.70;17.70;;;;;;5096022;28;20134;-78
2023/09/20 04:07:51;;;;;;;4.50;2.80;;;35.70;17.00;;;;;;5096048;28;20375;-81
2023/09/20 04:10:19;;;;;;;4.50;2.95;;;35.70;17.00;;;;;;5095817;28;20028;-79
2023/09/20 04:12:49;;;;;;;6.07;2.90;;;35.70;16.80;;;;;;5096696;28;20475;-78
2023/09/20 04:15:17;;;;;;;4.82;2.72;;;35.60;17.10;;;;;;5097275;28;20119;-79
2023/09/20 04:17:48;;;;;;;7.05;2.83;;;35.60;17.70;;;;;;5099164;28;20367;-82
2023/09/20 04:20:15;;;;;;;5.47;2.58;;;35.60;17.20;;;;;;5099395;28;20046;-79
2023/09/20 04:22:42;;;;;;;6.90;3.10;;;35.60;17.30;;;;;;5097875;28;20119;-84
2023/09/20 04:25:13;;;;;;;4.38;2.70;;;35.70;17.30;;;;;;5096782;28;20115;-78
2023/09/20 04:27:41;;;;;;;5.65;2.80;;;35.70;17.50;;;;;;5096342;28;20039;-78
2023/09/20 04:30:09;;;;;;;3.10;2.60;;;35.80;17.40;;;;;;5094417;28;20023;-80
2023/09/20 04:32:38;;;;;;;6.00;2.80;;;35.70;17.40;;;;;;5095757;28;20032;-79
2023/09/20 04:35:06;;;;;;;4.90;2.75;;;35.70;17.50;;;;;;5095518;28;20036;-78
2023/09/20 04:37:33;;;;;;;9.80;2.97;;;35.80;17.20;;;;;;5094036;28;20036;-79
2023/09/20 04:40:01;;;;;;;5.22;2.58;;;35.80;17.10;;;;;;5095044;28;20483;-79
2023/09/20 04:42:35;;;;;;;4.82;2.70;;;35.80;17.30;;;;;;5095324;28;20043;-79
2023/09/20 04:45:14;;;;;;;6.88;2.50;;;35.70;17.00;;;;;;5095271;28;20031;-81
2023/09/20 04:47:42;;;;;;;2.92;2.30;;;35.80;17.10;;;;;;5095570;28;20114;-79
2023/09/20 04:50:12;;;;;;;7.53;2.90;;;35.70;17.40;;;;;;5095066;28;20085;-79
2023/09/20 04:52:41;;;;;;;7.13;3.08;;;35.60;17.20;;;;;;5095255;28;20471;-80
2023/09/20 04:55:11;;;;;;;3.53;2.65;;;35.60;17.30;;;;;;5093504;28;20410;-80
2023/09/20 04:57:39;;;;;;;7.38;2.40;;;35.60;17.00;;;;;;5094703;28;20035;-82
2023/09/20 05:00:08;;;;;;;7.07;2.78;;;35.40;17.20;;;;;;5095006;28;20228;-82
2023/09/20 05:02:36;;;;;;;6.75;2.97;;;35.40;17.30;;;;;;5094930;28;20038;-80
2023/09/20 05:05:05;;;;;;;5.05;2.90;;;35.40;17.40;;;;;;5094924;28;20027;-82
2023/09/20 05:07:34;;;;;;;8.75;2.90;;;35.40;17.10;;;;;;5093614;28;20422;-80
2023/09/20 05:10:01;;;;;;;5.00;2.75;;;35.40;17.20;;;;;;5094786;28;20027;-81
2023/09/20 05:12:28;;;;;;;4.45;2.60;;;35.50;17.70;;;;;;5095790;28;20046;-81
2023/09/20 05:14:56;;;;;;;5.30;2.95;;;35.50;17.40;;;;;;5094581;28;20455;-79
2023/09/20 05:17:23;;;;;;;3.75;2.53;;;35.50;17.50;;;;;;5094232;28;20024;-81
2023/09/20 05:19:50;;;;;;;8.00;2.72;;;35.50;17.30;;;;;;5094732;28;20047;-81
2023/09/20 05:22:19;;;;;;;2.88;2.47;;;35.50;17.70;;;;;;5093985;28;20079;-80
2023/09/20 05:24:46;;;;;;;4.53;2.88;;;35.50;17.90;;;;;;5093599;28;20023;-80
2023/09/20 05:27:14;;;;;;;4.60;2.58;;;35.60;16.90;;;;;;5094557;28;20024;-81
2023/09/20 05:29:41;;;;;;;4.15;2.58;;;35.60;17.80;;;;;;5094690;28;20012;-80
2023/09/20 05:32:09;;;;;;;7.20;2.90;;;35.70;17.80;;;;;;5094771;28;20091;-79
2023/09/20 05:34:38;;;;;;;5.15;2.85;;;35.60;17.40;;;;;;5094624;28;20556;-79
2023/09/20 05:37:06;;;;;;;11.60;3.00;;;35.40;17.10;;;;;;5094351;28;20119;-82
2023/09/20 05:39:35;;;;;;;6.40;2.78;;;35.40;17.60;;;;;;5094549;28;20069;-79
2023/09/20 05:42:05;;;;;;;3.30;2.42;;;35.40;17.60;;;;;;5094623;28;20536;-83
2023/09/20 05:44:33;;;;;;;10.43;3.08;;;35.40;17.40;;;;;;5094637;28;20039;-80
2023/09/20 05:47:01;;;;;;;7.28;2.67;;;35.40;17.20;;;;;;5092874;28;20024;-80
2023/09/20 05:49:29;;;;;;;5.97;2.63;;;35.40;17.90;;;;;;5094223;28;20379;-81
2023/09/20 05:51:57;;;;;;;5.47;3.15;;;35.30;17.50;;;;;;5092958;28;20398;-84
2023/09/20 05:54:25;;;;;;;6.15;3.17;;;35.30;17.40;;;;;;5092752;28;20467;-81
2023/09/20 05:56:52;;;;;;;5.72;3.17;;;35.30;16.20;;;;;;5093993;28;20028;-84
2023/09/20 05:59:20;;;;;;;3.10;2.80;;;35.30;16.00;;;;;;5093916;28;20027;-81
2023/09/20 06:01:47;;;;;;;5.75;3.13;;;35.30;16.20;;;;;;5094051;28;20050;-81
2023/09/20 06:04:14;;;;;;;4.57;2.90;;;35.20;15.70;;;;;;5093734;28;20429;-83
2023/09/20 06:06:42;;;;;;;3.78;2.95;;;35.10;16.70;;;;;;5093673;28;20016;-80
2023/09/20 06:09:09;;;;;;;5.18;3.20;;;35.00;16.50;;;;;;5092889;28;20020;-80
2023/09/20 06:11:37;;;;;;;4.40;3.05;;;34.90;16.60;;;;;;5093305;28;20020;-79
2023/09/20 06:14:05;;;;;;;4.38;3.28;;;34.90;16.90;;;;;;5093477;28;20028;-80
2023/09/20 06:16:33;;;;;;;6.25;3.22;;;34.90;16.70;;;;;;5093378;28;20024;-82
2023/09/20 06:19:01;;;;;;;4.53;2.78;;;34.80;16.90;;;;;;5093221;28;20103;-79
2023/09/20 06:21:31;;;;;;;6.63;3.30;;;34.80;16.50;;;;;;5093375;28;20475;-81
2023/09/20 06:23:58;;;;;;;10.63;3.50;;;34.80;16.20;;;;;;5093030;28;20055;-81
2023/09/20 06:26:26;;;;;;;5.10;3.28;;;34.70;16.00;;;;;;5093081;28;20099;-79
2023/09/20 06:28:53;;;;;;;6.78;3.63;;;34.60;17.00;;;;;;5093285;28;20024;-79
2023/09/20 06:31:21;;;;;;;6.70;3.50;;;34.50;16.50;;;;;;5092015;28;20024;-79
2023/09/20 06:33:48;;;;;;;4.38;3.08;;;34.60;16.40;;;;;;5093299;28;20062;-80
2023/09/20 06:36:22;;;;;;;8.00;2.95;;;34.50;16.90;;;;;;5091764;28;20043;-80
2023/09/20 06:38:50;;;;;;;4.22;3.30;;;34.30;16.50;;;;;;5093096;28;20016;-78
2023/09/20 06:41:20;;;;;;;3.80;3.20;;;34.30;17.00;;;;;;5093334;28;20036;-80
2023/09/20 06:43:48;;;;;;;5.13;2.97;;;34.20;17.70;;;;;;5092849;28;20499;-78
2023/09/20 06:46:15;;;;;;;5.65;3.30;;;34.00;16.50;;;;;;5092928;28;20024;-79
2023/09/20 06:48:42;;;;;;;6.30;2.95;;;34.00;17.40;;;;;;5092938;28;20024;-80
2023/09/20 06:51:10;;;;;;;4.40;2.97;;;33.90;16.40;;;;;;5092352;28;20028;-79
2023/09/20 06:53:38;;;;;;;7.20;3.28;;;33.90;16.70;;;;;;5091429;28;20173;-81
2023/09/20 06:56:05;;;;;;;5.18;3.25;;;33.80;16.90;;;;;;5092929;28;20132;-79
2023/09/20 06:58:34;;;;;;;4.45;3.33;;;33.70;16.50;;;;;;5091642;28;20024;-78
2023/09/20 07:01:04;;;;;;;8.27;3.20;;;33.60;17.30;;;;;;5092560;28;20050;-80
2023/09/20 07:03:32;;;;;;;10.18;3.33;;;33.50;18.30;;;;;;5092598;28;20115;-79
2023/09/20 07:06:02;;;;;;;10.95;3.25;;;33.40;16.80;;;;;;5092733;28;20111;-79
2023/09/20 07:08:34;;;;;;;3.15;2.80;;;33.30;16.60;;;;;;5092717;28;20035;-81
2023/09/20 07:11:04;;;;;;;3.22;2.92;;;33.30;17.20;;;;;;5092792;28;20410;-80
2023/09/20 07:13:34;;;;;;;7.68;3.50;;;33.30;17.20;;;;;;5091471;28;20028;-80
2023/09/20 07:16:05;;;;;;;4.85;3.25;;;33.20;17.10;;;;;;5083650;28;20055;-79
2023/09/20 07:18:32;;;;;;;8.45;3.35;;;33.20;17.60;;;;;;5070684;28;20116;-81
2023/09/20 07:21:00;;;;;;;4.57;3.08;;;33.20;17.50;;;;;;5071346;28;20134;-79
2023/09/20 07:23:29;;;;;;;4.93;2.88;;;33.00;17.80;;;;;;5075253;28;20498;-80
2023/09/20 07:25:59;;;;;;;7.25;2.85;;;33.00;18.00;;;;;;5075049;28;20082;-80
2023/09/20 07:28:27;;;;;;;5.88;3.00;;;32.90;18.30;;;;;;5074331;28;20103;-80
2023/09/20 07:30:55;;;;;;;6.00;3.13;;;32.80;18.60;;;;;;5076143;28;20017;-80
2023/09/20 07:33:31;;;;;;;6.18;3.35;;;32.80;18.30;;;;;;5076345;28;20032;-80
2023/09/20 07:36:01;;;;;;;4.88;3.25;;;32.60;18.10;;;;;;5073803;28;20044;-81
2023/09/20 07:38:32;;;;;;;6.47;3.08;;;32.60;18.50;;;;;;5073676;28;20073;-79
2023/09/20 07:41:13;;;;;;;7.18;3.58;;;32.50;18.90;;;;;;5074543;28;20066;-79
2023/09/20 07:43:51;;;;;;;7.32;3.42;;;32.40;18.50;;;;;;5074426;28;20036;-82
2023/09/20 07:46:20;;;;;;;5.53;3.10;;;32.30;18.50;;;;;;5073304;28;20023;-81
2023/09/20 07:48:50;;;;;;;4.85;3.08;;;32.30;18.80;;;;;;5074496;28;20025;-80
2023/09/20 07:51:25;;;;;;;9.63;3.80;;;32.20;18.90;;;;;;5075734;28;20031;-80
2023/09/20 07:53:58;;;;;;;;;;;32.10;19.40;;;;;;5074927;28;20017;-80
2023/09/20 07:56:26;;;;;;;8.07;3.42;;;32.00;19.10;;;;;;5075772;28;20389;-81
2023/09/20 07:58:54;;;;;;;5.93;3.83;;;32.00;19.40;;;;;;5075084;28;20028;-80
2023/09/20 08:01:21;;;;;;;5.78;3.90;;;31.90;19.30;;;;;;5074945;28;20043;-81
2023/09/20 08:03:53;;;;;;;6.22;3.90;;;31.80;19.30;;;;;;5075461;28;20542;-81
2023/09/20 08:06:22;;;;;;;6.28;3.55;;;31.80;20.70;;;;;;5075611;28;20029;-80
2023/09/20 08:08:49;;;;;;;5.20;3.47;;;31.70;19.80;;;;;;5075620;28;20352;-80
2023/09/20 08:11:17;;;;;;;7.72;3.90;;;31.60;19.50;;;;;;5075300;28;20063;-81
2023/09/20 08:13:44;;;;;;;5.95;3.88;;;31.60;19.40;;;;;;5076093;28;20476;-80
2023/09/20 08:16:12;;;;;;;4.85;3.60;;;31.60;19.30;;;;;;5076421;28;20024;-79
2023/09/20 08:21:26;;;;;;;4.38;3.10;;;31.50;19.80;;;;;;5075707;28;20477;-79
2023/09/20 09:00:31;;;;;;;5.80;3.72;;;30.80;20.40;;;;;;5074953;28;20162;-82
2023/09/20 09:03:06;;;;;;;7.30;3.83;;;30.80;20.60;;;;;;5074215;28;20044;-79
2023/09/20 09:05:33;;;;;;;7.03;3.65;;;30.70;20.80;;;;;;5074409;28;20020;-82
2023/09/20 09:08:03;;;;;;;4.03;3.50;;;30.60;20.90;;;;;;5074267;28;20029;-82
2023/09/20 09:10:30;;;;;;;4.90;3.20;;;30.50;20.60;;;;;;5074328;28;20023;-82
2023/09/20 09:12:59;;;;;;;5.85;3.67;;;30.50;21.00;;;;;;5074092;28;20047;-83
2023/09/20 09:15:28;;;;;;;4.70;3.63;;;30.40;21.10;;;;;;5074371;28;20376;-81
2023/09/20 09:17:56;;;;;;;7.68;3.70;;;30.30;21.30;;;;;;5074267;28;20068;-82
2023/09/20 09:20:26;;;;;;;5.88;3.42;;;30.30;21.20;;;;;;5074309;28;20430;-80
2023/09/20 09:22:53;;;;;;;6.85;3.50;;;30.30;21.50;;;;;;5073529;28;20442;-79
2023/09/20 09:25:30;;;;;;;5.97;3.47;;;30.30;21.10;;;;;;5074251;28;20025;-81
2023/09/20 09:27:58;;;;;;;5.30;3.30;;;30.30;20.90;;;;;;5073789;28;20033;-82
2023/09/20 09:30:25;;;;;;;6.00;3.60;;;30.20;21.30;;;;;;5073865;28;20044;-83
2023/09/20 09:32:53;;;;;;;4.72;3.38;;;30.20;21.50;;;;;;5073753;28;20028;-81
2023/09/20 09:35:20;;;;;;;5.10;3.30;;;30.20;21.90;;;;;;5073638;28;20023;-82
2023/09/20 09:37:48;;;;;;;8.48;3.63;;;30.10;23.20;;;;;;5073385;28;20119;-81
2023/09/20 09:40:16;;;;;;;6.07;3.47;;;30.00;21.60;;;;;;5073759;28;20020;-81
2023/09/20 09:42:44;;;;;;;7.10;3.55;;;30.00;22.20;;;;;;5073605;28;20483;-81
2023/09/20 09:45:12;;;;;;;5.68;4.30;;;29.90;22.30;;;;;;5073499;28;20020;-86
2023/09/20 09:47:41;;;;;;;9.40;4.15;;;29.80;22.60;;;;;;5073745;28;20020;-81
2023/09/20 09:50:09;;;;;;;7.53;4.82;;;29.70;26.10;;;;;;5073443;28;20024;-83
2023/09/20 09:52:43;;;;;;;7.15;4.63;;;29.60;25.70;;;;;;5073326;28;20021;-82
2023/09/20 09:55:11;;;;;;;7.28;4.60;;;29.50;24.20;;;;;;5073193;28;20421;-81
2023/09/20 09:57:38;;;;;;;9.60;5.47;;;29.30;25.50;;;;;;5073246;28;20502;-82
2023/09/20 10:00:10;;;;;;;9.60;4.88;;;29.20;26.80;;;;;;5071959;28;20024;-80
2023/09/20 10:02:45;;;;;;;7.53;5.13;;;29.10;25.80;;;;;;5071733;28;20028;-81
2023/09/20 10:05:14;;;;;;;5.35;4.30;;;29.00;26.10;;;;;;5071497;28;20468;-80
2023/09/20 10:07:45;;;;;;;8.75;5.28;;;28.90;25.80;;;;;;5072926;28;20029;-80
2023/09/20 10:10:12;;;;;;;9.88;5.53;;;28.80;28.10;;;;;;5073239;28;20024;-81
2023/09/20 10:12:44;;;;;;;15.88;6.15;;;28.80;27.10;;;;;;5073101;28;20389;-80
2023/09/20 10:15:15;;;;;;;9.32;6.55;;;28.70;26.30;;;;;;5072652;28;20044;-78
2023/09/20 10:17:55;;;;;;;12.48;5.80;;;28.60;30.30;;;;;;5073244;28;20102;-81
2023/09/20 10:20:23;;;;;;;11.68;5.70;;;28.50;28.30;;;;;;5072937;28;20017;-81
2023/09/20 10:22:52;;;;;;;11.32;5.57;;;28.30;29.00;;;;;;5072778;28;20421;-82
2023/09/20 10:25:36;;;;;;;9.57;5.75;;;28.30;28.90;;;;;;5072858;28;20424;-81
2023/09/20 10:28:08;;;;;;;9.23;5.45;;;28.20;29.00;;;;;;5073068;28;20051;-84
2023/09/20 10:30:56;;;;;;;7.57;6.28;;;28.00;28.10;;;;;;5072847;28;20021;-81
2023/09/20 10:33:46;;;;;;;10.32;5.68;;;28.00;31.00;;;;;;5071386;28;20379;-82
2023/09/20 10:36:24;;;;;;;12.50;7.38;;;28.00;30.10;;;;;;5072541;28;20583;-82
2023/09/20 10:39:13;;;;;;;8.45;5.43;;;28.00;33.00;;;;;;5072492;28;20031;-80
2023/09/20 10:41:41;;;;;;;8.70;5.78;;;27.90;30.60;;;;;;5072783;28;20031;-81
2023/09/20 10:44:24;;;;;;;12.15;6.53;;;27.70;32.00;;;;;;5072724;28;20539;-80
2023/09/20 10:46:53;;;;;;;13.30;5.53;;;27.70;31.50;;;;;;5071070;28;20479;-80
2023/09/20 10:49:43;;;;;;;14.50;6.18;;;27.50;30.10;;;;;;5072599;28;20391;-80
2023/09/20 10:52:14;;;;;;;9.65;6.55;;;27.40;29.30;;;;;;5072313;28;20029;-82
2023/09/20 10:54:41;;;;;;;11.70;5.90;;;27.30;30.90;;;;;;5072561;28;20017;-83
2023/09/20 10:57:09;;;;;;;10.30;6.05;;;27.20;30.60;;;;;;5072280;28;20024;-82
2023/09/20 10:59:40;;;;;;;7.82;5.43;;;27.20;32.10;;;;;;5072641;28;20025;-83
2023/09/20 11:02:17;;;;;;;12.02;5.63;;;27.20;31.30;;;;;;5071715;28;20454;-83
2023/09/20 11:04:46;;;;;;;13.25;6.20;;;27.10;30.80;;;;;;5073637;28;20036;-84
2023/09/20 11:07:14;;;;;;;8.68;5.75;;;27.00;30.40;;;;;;5073345;28;20012;-84
2023/09/20 11:09:42;;;;;;;7.30;5.20;;;26.90;32.10;;;;;;5072238;28;20051;-85
2023/09/20 11:12:11;;;;;;;10.60;5.20;;;26.80;31.10;;;;;;5072831;28;20107;-83
2023/09/20 11:14:41;;;;;;;9.95;5.65;;;26.80;31.70;;;;;;5072510;28;20024;-82
2023/09/20 11:17:13;;;;;;;8.80;5.95;;;26.70;32.10;;;;;;5072190;28;20047;-82
2023/09/20 11:19:41;;;;;;;13.68;5.22;;;26.70;31.40;;;;;;5072576;28;20520;-83
2023/09/20 11:22:09;;;;;;;11.27;5.38;;;26.70;32.10;;;;;;5072192;28;20032;-83
2023/09/20 11:24:39;;;;;;;9.77;5.45;;;26.60;32.70;;;;;;5072465;28;20029;-82
2023/09/20 11:27:06;;;;;;;9.45;5.43;;;26.60;32.30;;;;;;5072297;28;20367;-82
2023/09/20 11:29:40;;;;;;;14.73;5.28;;;26.60;31.50;;;;;;5072357;28;20027;-81
2023/09/20 11:32:15;;;;;;;7.07;5.10;;;26.50;31.50;;;;;;5072458;28;20021;-82
2023/09/20 11:34:45;;;;;;;7.03;5.38;;;26.40;33.20;;;;;;5072453;28;20062;-81
2023/09/20 11:37:19;;;;;;;8.40;5.40;;;26.50;32.90;;;;;;5071948;28;20405;-82
2023/09/20 11:39:51;;;;;;;8.40;5.68;;;26.40;33.80;;;;;;5072434;28;20031;-82
2023/09/20 11:42:34;;;;;;;16.80;5.22;;;26.50;33.70;;;;;;5070656;28;20123;-86
2023/09/20 11:45:07;;;;;;;21.45;5.43;;;26.30;40.40;;;;;;5072288;28;20024;-84
2023/09/20 11:47:42;;;;;;;22.60;5.50;;;26.00;44.70;;;;;;5072282;28;20032;-85
2023/09/20 11:50:13;;;;;;;22.88;5.47;;;25.80;49.00;;;;;;5072299;28;20113;-83
2023/09/20 11:52:46;;;;;;;29.60;6.72;;;25.20;50.00;;;;;;5072042;28;20032;-84
2023/09/20 11:55:14;;;;;;;27.25;6.22;;;24.80;52.70;;;;;;5071761;28;20021;-85
2023/09/20 11:57:48;;;;;;;21.63;5.03;;;24.40;54.60;;;;;;5073685;28;20024;-85
2023/09/20 12:00:20;;;;;;;24.70;6.00;;;24.10;54.80;;;;;;5075374;28;20012;-85
2023/09/20 12:02:48;;;;;;;33.30;6.57;;;23.90;56.20;;;;;;5073504;28;20088;-88
2023/09/20 12:05:18;;;;;;;30.25;6.03;;;23.70;57.40;;;;;;5074062;28;20036;-85
2023/09/20 12:08:00;;;;;;;20.77;5.20;;;23.50;57.80;;;;;;5072520;28;20047;-85
2023/09/20 12:10:30;;;;;;;27.15;6.10;;;23.30;57.80;;;;;;5077274;28;20032;-81
2023/09/20 12:12:57;;;;;;;30.33;6.32;;;23.30;58.60;;;;;;5078461;28;20064;-81
2023/09/20 12:15:25;;;;;;;38.03;7.13;;;23.20;59.60;;;;;;5077848;28;20024;-81
2023/09/20 12:17:57;;;;;;;25.92;5.57;;;23.10;60.50;;;;;;5076693;28;20033;-81
2023/09/20 12:20:29;;;;;;;26.45;6.05;;;22.90;61.10;;;;;;5076588;28;20047;-82
2023/09/20 12:23:00;;;;;;;35.72;6.68;;;22.80;61.70;;;;;;5073374;28;20090;-79
2023/09/20 12:25:28;;;;;;;35.70;6.25;;;22.70;62.40;;;;;;5075695;28;20031;-81
2023/09/20 12:27:55;;;;;;;29.13;5.97;;;22.50;62.80;;;;;;5075836;28;20432;-81
2023/09/20 12:30:27;;;;;;;30.35;6.18;;;22.30;63.40;;;;;;5072184;28;20107;-81
2023/09/20 12:32:56;;;;;;;29.30;5.95;;;22.20;63.90;;;;;;5075068;28;20031;-81
2023/09/20 12:35:23;;;;;;;31.25;5.93;;;22.20;63.70;;;;;;5072057;28;20013;-80
2023/09/20 12:37:52;;;;;;;25.73;5.72;;;22.20;64.40;;;;;;5073285;28;20033;-80
2023/09/20 12:40:21;;;;;;;33.78;6.72;;;22.10;64.70;;;;;;5074342;28;20539;-79
2023/09/20 12:42:50;;;;;;;33.85;6.50;;;22.00;65.30;;;;;;5074472;28;20100;-80
2023/09/20 12:45:19;;;;;;;29.38;5.45;;;21.80;66.30;;;;;;5074155;28;20364;-81
2023/09/20 12:47:46;;;;;;;41.00;6.70;;;21.70;66.30;;;;;;5072345;28;20021;-81
2023/09/20 12:50:14;;;;;;;32.88;5.97;;;21.70;67.00;;;;;;5074505;28;20085;-81
2023/09/20 12:52:47;;;;;;;33.60;5.47;;;21.60;66.70;;;;;;5072344;28;20453;-80
2023/09/20 12:55:15;;;;;;;35.65;5.60;;;21.50;67.70;;;;;;5074006;28;20379;-83
2023/09/20 12:57:43;;;;;;;31.38;5.88;;;21.50;68.50;;;;;;5073613;28;20028;-83
2023/09/20 13:00:16;;;;;;;36.67;7.22;;;21.30;68.50;;;;;;5075418;28;20523;-84
2023/09/20 13:02:45;;;;;;;31.95;5.53;;;21.30;68.90;;;;;;5078977;28;20036;-81
2023/09/20 13:05:13;;;;;;;31.35;5.82;;;21.30;68.80;;;;;;5088983;28;20055;-84
2023/09/20 13:07:41;;;;;;;39.13;6.25;;;21.30;69.20;;;;;;5075633;28;20031;-82
2023/09/20 13:10:13;;;;;;;30.23;5.55;;;21.20;69.80;;;;;;5080047;28;20016;-86
2023/09/20 13:12:43;;;;;;;32.03;5.53;;;21.20;69.70;;;;;;5082956;28;20063;-84
2023/09/20 13:15:12;;;;;;;36.90;6.32;;;21.20;70.00;;;;;;5088422;28;20535;-80
2023/09/20 13:17:43;;;;;;;27.27;5.15;;;21.20;70.20;;;;;;5077279;28;20435;-84
2023/09/20 13:20:15;;;;;;;33.05;5.95;;;21.20;70.50;;;;;;5087373;28;20112;-77
2023/09/20 13:22:43;;;;;;;33.40;5.78;;;21.10;70.80;;;;;;5083750;28;20483;-82
2023/09/20 13:25:19;;;;;;;27.50;5.35;;;21.00;70.90;;;;;;5079189;28;20036;-81
2023/09/20 13:27:48;;;;;;;28.23;5.90;;;20.90;71.00;;;;;;5090938;28;20020;-84
2023/09/20 13:30:17;;;;;;;29.65;5.80;;;20.90;71.00;;;;;;5081148;28;20467;-85
2023/09/20 13:32:47;;;;;;;35.53;5.68;;;20.90;70.80;;;;;;5083019;28;20483;-82
2023/09/20 13:35:18;;;;;;;25.60;5.05;;;20.80;70.50;;;;;;5087839;28;20031;-84
2023/09/20 13:37:46;;;;;;;30.02;5.32;;;20.80;70.50;;;;;;5077463;28;20120;-84